sensor_id;sensor_type;location;lat;lon;timestamp;temperature;humidity
8888;DHT22;4480;52.370;9.748;2022-09-24T00:00:02;13.80;95.90
8888;DHT22;4480;52.370;9.748;2022-09-24T00:02:30;13.80;96.20
8888;DHT22;4480;52.370;9.748;2022-09-24T00:04:56;13.70;96.40
8888;DHT22;4480;52.370;9.748;2022-09-24T00:07:23;13.70;96.70
8888;DHT22;4480;52.370;9.748;2022-09-24T00:09:50;13.70;97.00
8888;DHT22;4480;52.370;9.748;2022-09-24T00:12:17;13.70;97.20
8888;DHT22;4480;52.370;9.748;2022-09-24T00:14:43;13.60;97.30
8888;DHT22;4480;52.370;9.748;2022-09-24T00:17:10;13.60;97.40
8888;DHT22;4480;52.370;9.748;2022-09-24T00:19:38;13.60;97.60
8888;DHT22;4480;52.370;9.748;2022-09-24T00:22:05;13.60;97.80
8888;DHT22;4480;52.370;9.748;2022-09-24T00:24:32;13.60;98.00
8888;DHT22;4480;52.370;9.748;2022-09-24T00:27:16;13.60;98.20
8888;DHT22;4480;52.370;9.748;2022-09-24T00:29:43;13.60;98.50
8888;DHT22;4480;52.370;9.748;2022-09-24T00:32:10;13.60;99.00
8888;DHT22;4480;52.370;9.748;2022-09-24T00:34:39;13.60;98.90
8888;DHT22;4480;52.370;9.748;2022-09-24T00:37:06;13.50;99.10
8888;DHT22;4480;52.370;9.748;2022-09-24T00:39:32;13.60;99.30
8888;DHT22;4480;52.370;9.748;2022-09-24T00:41:59;13.50;99.40
8888;DHT22;4480;52.370;9.748;2022-09-24T00:44:49;13.50;99.70
8888;DHT22;4480;52.370;9.748;2022-09-24T00:47:23;13.50;99.90
8888;DHT22;4480;52.370;9.748;2022-09-24T00:49:55;13.50;99.90
8888;DHT22;4480;52.370;9.748;2022-09-24T00:52:24;13.40;99.90
8888;DHT22;4480;52.370;9.748;2022-09-24T00:54:51;13.40;99.90
8888;DHT22;4480;52.370;9.748;2022-09-24T00:57:18;13.40;99.90
8888;DHT22;4480;52.370;9.748;2022-09-24T00:59:45;13.40;99.90
8888;DHT22;4480;52.370;9.748;2022-09-24T01:02:12;13.40;99.90
8888;DHT22;4480;52.370;9.748;2022-09-24T01:04:39;13.40;99.90
8888;DHT22;4480;52.370;9.748;2022-09-24T01:07:07;13.40;99.90
8888;DHT22;4480;52.370;9.748;2022-09-24T01:09:34;13.40;99.90
8888;DHT22;4480;52.370;9.748;2022-09-24T01:12:07;13.40;99.90
8888;DHT22;4480;52.370;9.748;2022-09-24T01:14:56;13.40;99.90
8888;DHT22;4480;52.370;9.748;2022-09-24T01:17:30;13.40;99.90
8888;DHT22;4480;52.370;9.748;2022-09-24T01:20:27;13.40;99.90
8888;DHT22;4480;52.370;9.748;2022-09-24T01:23:18;13.40;99.90
8888;DHT22;4480;52.370;9.748;2022-09-24T01:26:00;13.40;99.90
8888;DHT22;4480;52.370;9.748;2022-09-24T01:28:36;13.40;99.90
8888;DHT22;4480;52.370;9.748;2022-09-24T01:31:14;13.40;99.90
8888;DHT22;4480;52.370;9.748;2022-09-24T01:33:45;13.40;99.90
8888;DHT22;4480;52.370;9.748;2022-09-24T01:36:18;13.40;99.90
8888;DHT22;4480;52.370;9.748;2022-09-24T01:38:48;13.40;99.90
8888;DHT22;4480;52.370;9.748;2022-09-24T01:41:16;13.40;99.90
8888;DHT22;4480;52.370;9.748;2022-09-24T01:43:43;13.40;99.90
8888;DHT22;4480;52.370;9.748;2022-09-24T01:46:12;13.40;99.90
8888;DHT22;4480;52.370;9.748;2022-09-24T01:48:42;13.40;99.90
8888;DHT22;4480;52.370;9.748;2022-09-24T01:51:13;13.40;99.90
8888;DHT22;4480;52.370;9.748;2022-09-24T01:53:44;13.40;99.90
8888;DHT22;4480;52.370;9.748;2022-09-24T01:56:15;13.40;99.90
8888;DHT22;4480;52.370;9.748;2022-09-24T01:58:48;13.40;99.90
8888;DHT22;4480;52.370;9.748;2022-09-24T02:01:31;13.40;99.90
8888;DHT22;4480;52.370;9.748;2022-09-24T02:04:04;13.40;99.90
8888;DHT22;4480;52.370;9.748;2022-09-24T02:06:35;13.30;99.90
8888;DHT22;4480;52.370;9.748;2022-09-24T02:09:03;13.30;99.90
8888;DHT22;4480;52.370;9.748;2022-09-24T02:11:32;13.30;99.90
8888;DHT22;4480;52.370;9.748;2022-09-24T02:14:03;13.30;99.90
8888;DHT22;4480;52.370;9.748;2022-09-24T02:16:35;13.30;99.90
8888;DHT22;4480;52.370;9.748;2022-09-24T02:19:05;13.30;99.90
8888;DHT22;4480;52.370;9.748;2022-09-24T02:21:35;13.30;99.90
8888;DHT22;4480;52.370;9.748;2022-09-24T02:24:06;13.20;99.90
8888;DHT22;4480;52.370;9.748;2022-09-24T02:26:33;13.20;99.90
8888;DHT22;4480;52.370;9.748;2022-09-24T02:29:00;13.20;99.90
8888;DHT22;4480;52.370;9.748;2022-09-24T02:31:29;13.20;99.90
8888;DHT22;4480;52.370;9.748;2022-09-24T02:34:02;13.20;99.90
8888;DHT22;4480;52.370;9.748;2022-09-24T02:36:53;13.10;99.90
8888;DHT22;4480;52.370;9.748;2022-09-24T02:39:21;13.00;99.90
8888;DHT22;4480;52.370;9.748;2022-09-24T02:41:48;13.00;99.90
8888;DHT22;4480;52.370;9.748;2022-09-24T02:44:17;13.00;99.90
8888;DHT22;4480;52.370;9.748;2022-09-24T02:46:44;13.00;99.90
8888;DHT22;4480;52.370;9.748;2022-09-24T02:49:13;12.90;99.90
8888;DHT22;4480;52.370;9.748;2022-09-24T02:51:40;12.90;99.90
8888;DHT22;4480;52.370;9.748;2022-09-24T02:54:07;12.80;99.90
8888;DHT22;4480;52.370;9.748;2022-09-24T02:56:35;12.80;99.90
8888;DHT22;4480;52.370;9.748;2022-09-24T02:59:02;12.80;99.90
8888;DHT22;4480;52.370;9.748;2022-09-24T03:01:29;12.80;99.90
8888;DHT22;4480;52.370;9.748;2022-09-24T03:03:56;12.80;99.90
8888;DHT22;4480;52.370;9.748;2022-09-24T03:06:25;12.80;99.90
8888;DHT22;4480;52.370;9.748;2022-09-24T03:08:52;12.80;99.90
8888;DHT22;4480;52.370;9.748;2022-09-24T03:11:19;12.80;99.90
8888;DHT22;4480;52.370;9.748;2022-09-24T03:13:47;12.70;99.90
8888;DHT22;4480;52.370;9.748;2022-09-24T03:16:14;12.70;99.90
8888;DHT22;4480;52.370;9.748;2022-09-24T03:18:41;12.70;99.90
8888;DHT22;4480;52.370;9.748;2022-09-24T03:21:10;12.70;99.90
8888;DHT22;4480;52.370;9.748;2022-09-24T03:23:39;12.70;99.90
8888;DHT22;4480;52.370;9.748;2022-09-24T03:26:06;12.70;99.90
8888;DHT22;4480;52.370;9.748;2022-09-24T03:28:33;12.60;99.90
8888;DHT22;4480;52.370;9.748;2022-09-24T03:31:00;12.70;99.90
8888;DHT22;4480;52.370;9.748;2022-09-24T03:33:28;12.60;99.90
8888;DHT22;4480;52.370;9.748;2022-09-24T03:35:56;12.60;99.90
8888;DHT22;4480;52.370;9.748;2022-09-24T03:38:23;12.50;99.90
8888;DHT22;4480;52.370;9.748;2022-09-24T03:40:51;12.50;99.90
8888;DHT22;4480;52.370;9.748;2022-09-24T03:43:18;12.50;99.90
8888;DHT22;4480;52.370;9.748;2022-09-24T03:45:45;12.40;99.90
8888;DHT22;4480;52.370;9.748;2022-09-24T03:48:12;12.40;99.90
8888;DHT22;4480;52.370;9.748;2022-09-24T03:50:39;12.40;99.90
8888;DHT22;4480;52.370;9.748;2022-09-24T03:53:06;12.40;99.90
8888;DHT22;4480;52.370;9.748;2022-09-24T03:55:33;12.30;99.90
8888;DHT22;4480;52.370;9.748;2022-09-24T03:58:01;12.30;99.90
8888;DHT22;4480;52.370;9.748;2022-09-24T04:00:28;12.30;99.90
8888;DHT22;4480;52.370;9.748;2022-09-24T04:02:54;12.30;99.90
8888;DHT22;4480;52.370;9.748;2022-09-24T04:05:21;12.30;99.90
8888;DHT22;4480;52.370;9.748;2022-09-24T04:10:15;12.30;99.90
8888;DHT22;4480;52.370;9.748;2022-09-24T04:12:42;12.30;99.90
8888;DHT22;4480;52.370;9.748;2022-09-24T04:15:10;12.30;99.90
8888;DHT22;4480;52.370;9.748;2022-09-24T04:17:37;12.20;99.90
8888;DHT22;4480;52.370;9.748;2022-09-24T04:20:04;12.20;99.90
8888;DHT22;4480;52.370;9.748;2022-09-24T04:22:32;12.30;99.90
8888;DHT22;4480;52.370;9.748;2022-09-24T04:24:59;12.20;99.90
8888;DHT22;4480;52.370;9.748;2022-09-24T04:27:29;12.30;99.90
8888;DHT22;4480;52.370;9.748;2022-09-24T04:29:55;12.30;99.90
8888;DHT22;4480;52.370;9.748;2022-09-24T04:32:22;12.30;99.90
8888;DHT22;4480;52.370;9.748;2022-09-24T04:34:49;12.30;99.90
8888;DHT22;4480;52.370;9.748;2022-09-24T04:37:16;12.20;99.90
8888;DHT22;4480;52.370;9.748;2022-09-24T04:39:42;12.20;99.90
8888;DHT22;4480;52.370;9.748;2022-09-24T04:42:09;12.20;99.90
8888;DHT22;4480;52.370;9.748;2022-09-24T04:44:42;12.20;99.90
8888;DHT22;4480;52.370;9.748;2022-09-24T04:47:12;12.20;99.90
8888;DHT22;4480;52.370;9.748;2022-09-24T04:49:39;12.20;99.90
8888;DHT22;4480;52.370;9.748;2022-09-24T04:52:07;12.20;99.90
8888;DHT22;4480;52.370;9.748;2022-09-24T04:54:34;12.20;99.90
8888;DHT22;4480;52.370;9.748;2022-09-24T04:57:01;12.20;99.90
8888;DHT22;4480;52.370;9.748;2022-09-24T04:59:27;12.20;99.90
8888;DHT22;4480;52.370;9.748;2022-09-24T05:01:56;12.20;99.90
8888;DHT22;4480;52.370;9.748;2022-09-24T05:04:23;12.10;99.90
8888;DHT22;4480;52.370;9.748;2022-09-24T05:06:50;12.10;99.90
8888;DHT22;4480;52.370;9.748;2022-09-24T05:09:17;12.10;99.90
8888;DHT22;4480;52.370;9.748;2022-09-24T05:11:43;12.10;99.90
8888;DHT22;4480;52.370;9.748;2022-09-24T05:14:10;12.10;99.90
8888;DHT22;4480;52.370;9.748;2022-09-24T05:16:37;12.10;99.90
8888;DHT22;4480;52.370;9.748;2022-09-24T05:19:05;12.10;99.90
8888;DHT22;4480;52.370;9.748;2022-09-24T05:21:32;12.10;99.90
8888;DHT22;4480;52.370;9.748;2022-09-24T05:23:59;12.10;99.90
8888;DHT22;4480;52.370;9.748;2022-09-24T05:26:25;12.00;99.90
8888;DHT22;4480;52.370;9.748;2022-09-24T05:29:09;12.10;99.90
8888;DHT22;4480;52.370;9.748;2022-09-24T05:31:36;12.10;99.90
8888;DHT22;4480;52.370;9.748;2022-09-24T05:34:04;12.10;99.90
8888;DHT22;4480;52.370;9.748;2022-09-24T05:36:31;12.10;99.90
8888;DHT22;4480;52.370;9.748;2022-09-24T05:38:58;12.10;99.90
8888;DHT22;4480;52.370;9.748;2022-09-24T05:41:25;12.20;99.90
8888;DHT22;4480;52.370;9.748;2022-09-24T05:43:51;12.20;99.90
8888;DHT22;4480;52.370;9.748;2022-09-24T06:15:52;12.20;99.90
8888;DHT22;4480;52.370;9.748;2022-09-24T06:30:37;12.70;99.90
8888;DHT22;4480;52.370;9.748;2022-09-24T06:38:00;12.80;99.90
8888;DHT22;4480;52.370;9.748;2022-09-24T12:09:25;12.90;99.90
8888;DHT22;4480;52.370;9.748;2022-09-24T12:11:58;17.70;99.70
8888;DHT22;4480;52.370;9.748;2022-09-24T12:14:39;17.70;99.20
8888;DHT22;4480;52.370;9.748;2022-09-24T12:17:15;17.60;99.10
8888;DHT22;4480;52.370;9.748;2022-09-24T12:19:48;17.50;99.40
8888;DHT22;4480;52.370;9.748;2022-09-24T12:22:18;17.40;99.70
8888;DHT22;4480;52.370;9.748;2022-09-24T12:24:50;17.40;99.90
8888;DHT22;4480;52.370;9.748;2022-09-24T12:27:21;17.50;99.90
8888;DHT22;4480;52.370;9.748;2022-09-24T12:29:53;17.50;99.90
8888;DHT22;4480;52.370;9.748;2022-09-24T12:32:42;17.50;99.90
8888;DHT22;4480;52.370;9.748;2022-09-24T12:35:36;17.40;99.90
8888;DHT22;4480;52.370;9.748;2022-09-24T12:38:12;17.40;99.90
8888;DHT22;4480;52.370;9.748;2022-09-24T12:41:04;17.30;99.90
8888;DHT22;4480;52.370;9.748;2022-09-24T12:43:41;17.30;99.90
8888;DHT22;4480;52.370;9.748;2022-09-24T12:48:42;17.10;99.90
8888;DHT22;4480;52.370;9.748;2022-09-24T12:51:10;16.80;99.90
8888;DHT22;4480;52.370;9.748;2022-09-24T13:18:57;16.70;99.90
8888;DHT22;4480;52.370;9.748;2022-09-24T13:21:26;16.60;99.90
8888;DHT22;4480;52.370;9.748;2022-09-24T13:23:54;16.60;99.90
8888;DHT22;4480;52.370;9.748;2022-09-24T13:26:30;16.50;99.90
8888;DHT22;4480;52.370;9.748;2022-09-24T13:29:02;16.50;99.90
8888;DHT22;4480;52.370;9.748;2022-09-24T13:31:34;16.40;99.90
8888;DHT22;4480;52.370;9.748;2022-09-24T13:34:13;16.40;99.90
8888;DHT22;4480;52.370;9.748;2022-09-24T13:36:46;16.30;99.90
8888;DHT22;4480;52.370;9.748;2022-09-24T13:39:15;16.40;99.90
8888;DHT22;4480;52.370;9.748;2022-09-24T13:41:50;16.40;99.90
8888;DHT22;4480;52.370;9.748;2022-09-24T13:44:22;16.40;99.90
8888;DHT22;4480;52.370;9.748;2022-09-24T13:46:56;16.40;99.90
8888;DHT22;4480;52.370;9.748;2022-09-24T13:49:25;16.30;99.90
8888;DHT22;4480;52.370;9.748;2022-09-24T13:52:04;16.30;99.90
8888;DHT22;4480;52.370;9.748;2022-09-24T13:54:36;16.20;99.90
8888;DHT22;4480;52.370;9.748;2022-09-24T13:57:11;16.20;99.90
8888;DHT22;4480;52.370;9.748;2022-09-24T13:59:40;16.20;99.90
8888;DHT22;4480;52.370;9.748;2022-09-24T14:02:22;16.20;99.90
8888;DHT22;4480;52.370;9.748;2022-09-24T14:04:53;16.20;99.90
8888;DHT22;4480;52.370;9.748;2022-09-24T14:07:22;16.20;99.90
8888;DHT22;4480;52.370;9.748;2022-09-24T14:09:49;16.20;99.90
8888;DHT22;4480;52.370;9.748;2022-09-24T14:12:27;16.10;99.90
8888;DHT22;4480;52.370;9.748;2022-09-24T14:14:55;16.10;99.90
8888;DHT22;4480;52.370;9.748;2022-09-24T14:17:23;16.10;99.90
8888;DHT22;4480;52.370;9.748;2022-09-24T14:19:53;16.00;99.90
8888;DHT22;4480;52.370;9.748;2022-09-24T14:22:23;16.00;99.90
8888;DHT22;4480;52.370;9.748;2022-09-24T14:24:54;15.90;99.90
8888;DHT22;4480;52.370;9.748;2022-09-24T14:27:23;15.80;99.90
8888;DHT22;4480;52.370;9.748;2022-09-24T14:29:55;15.80;99.90
8888;DHT22;4480;52.370;9.748;2022-09-24T14:32:27;15.80;99.90
8888;DHT22;4480;52.370;9.748;2022-09-24T14:34:56;15.70;99.90
8888;DHT22;4480;52.370;9.748;2022-09-24T14:37:27;15.70;99.90
8888;DHT22;4480;52.370;9.748;2022-09-24T14:39:58;15.70;99.90
8888;DHT22;4480;52.370;9.748;2022-09-24T14:42:30;15.70;99.90
8888;DHT22;4480;52.370;9.748;2022-09-24T14:45:01;15.60;99.90
8888;DHT22;4480;52.370;9.748;2022-09-24T14:47:30;15.50;99.90
8888;DHT22;4480;52.370;9.748;2022-09-24T14:49:57;15.50;99.90
8888;DHT22;4480;52.370;9.748;2022-09-24T14:52:28;15.40;99.90
8888;DHT22;4480;52.370;9.748;2022-09-24T14:55:02;15.40;99.90
8888;DHT22;4480;52.370;9.748;2022-09-24T14:57:35;15.40;99.90
8888;DHT22;4480;52.370;9.748;2022-09-24T15:00:21;15.30;99.90
8888;DHT22;4480;52.370;9.748;2022-09-24T15:02:51;15.40;99.90
8888;DHT22;4480;52.370;9.748;2022-09-24T15:05:23;15.40;99.90
8888;DHT22;4480;52.370;9.748;2022-09-24T15:07:51;15.30;99.90
8888;DHT22;4480;52.370;9.748;2022-09-24T15:10:19;15.30;99.90
8888;DHT22;4480;52.370;9.748;2022-09-24T15:12:49;15.30;99.90
8888;DHT22;4480;52.370;9.748;2022-09-24T15:15:29;15.20;99.90
8888;DHT22;4480;52.370;9.748;2022-09-24T15:17:56;15.20;99.90
8888;DHT22;4480;52.370;9.748;2022-09-24T15:20:24;15.20;99.90
8888;DHT22;4480;52.370;9.748;2022-09-24T15:22:51;15.20;99.90
8888;DHT22;4480;52.370;9.748;2022-09-24T15:25:17;15.20;99.90
8888;DHT22;4480;52.370;9.748;2022-09-24T15:27:44;15.20;99.90
8888;DHT22;4480;52.370;9.748;2022-09-24T15:30:16;15.20;99.90
8888;DHT22;4480;52.370;9.748;2022-09-24T15:32:46;15.20;99.90
8888;DHT22;4480;52.370;9.748;2022-09-24T15:35:15;15.10;99.90
8888;DHT22;4480;52.370;9.748;2022-09-24T15:37:41;15.10;99.90
8888;DHT22;4480;52.370;9.748;2022-09-24T15:40:16;15.00;99.90
8888;DHT22;4480;52.370;9.748;2022-09-24T15:42:45;15.00;99.90
8888;DHT22;4480;52.370;9.748;2022-09-24T15:45:16;14.90;99.90
8888;DHT22;4480;52.370;9.748;2022-09-24T15:47:47;14.90;99.90
8888;DHT22;4480;52.370;9.748;2022-09-24T15:50:14;14.90;99.90
8888;DHT22;4480;52.370;9.748;2022-09-24T15:52:45;14.80;99.90
8888;DHT22;4480;52.370;9.748;2022-09-24T15:55:15;14.80;99.90
8888;DHT22;4480;52.370;9.748;2022-09-24T15:57:43;14.70;99.90
8888;DHT22;4480;52.370;9.748;2022-09-24T16:00:15;14.70;99.90
8888;DHT22;4480;52.370;9.748;2022-09-24T16:02:44;14.70;99.90
8888;DHT22;4480;52.370;9.748;2022-09-24T16:05:15;14.60;99.90
8888;DHT22;4480;52.370;9.748;2022-09-24T16:07:42;14.60;99.90
8888;DHT22;4480;52.370;9.748;2022-09-24T16:10:09;14.60;99.90
8888;DHT22;4480;52.370;9.748;2022-09-24T16:12:37;14.50;99.90
8888;DHT22;4480;52.370;9.748;2022-09-24T16:15:04;14.50;99.90
8888;DHT22;4480;52.370;9.748;2022-09-24T16:17:31;14.50;99.90
8888;DHT22;4480;52.370;9.748;2022-09-24T16:19:58;14.50;99.90
8888;DHT22;4480;52.370;9.748;2022-09-24T16:22:26;14.50;99.90
8888;DHT22;4480;52.370;9.748;2022-09-24T16:24:53;14.50;99.90
8888;DHT22;4480;52.370;9.748;2022-09-24T16:27:20;14.50;99.90
8888;DHT22;4480;52.370;9.748;2022-09-24T16:29:49;14.40;99.90
8888;DHT22;4480;52.370;9.748;2022-09-24T16:32:15;14.40;99.90
8888;DHT22;4480;52.370;9.748;2022-09-24T16:34:42;14.40;99.90
8888;DHT22;4480;52.370;9.748;2022-09-24T16:37:09;14.30;99.90
8888;DHT22;4480;52.370;9.748;2022-09-24T16:39:39;14.30;99.90
8888;DHT22;4480;52.370;9.748;2022-09-24T16:42:06;14.20;99.90
8888;DHT22;4480;52.370;9.748;2022-09-24T16:44:33;14.20;99.90
8888;DHT22;4480;52.370;9.748;2022-09-24T16:46:59;14.20;99.90
8888;DHT22;4480;52.370;9.748;2022-09-24T16:49:26;14.10;99.90
8888;DHT22;4480;52.370;9.748;2022-09-24T16:51:53;14.10;99.90
8888;DHT22;4480;52.370;9.748;2022-09-24T16:54:20;14.10;99.90
8888;DHT22;4480;52.370;9.748;2022-09-24T16:56:49;14.10;99.90
8888;DHT22;4480;52.370;9.748;2022-09-24T16:59:17;14.00;99.90
8888;DHT22;4480;52.370;9.748;2022-09-24T17:01:44;14.00;99.90
8888;DHT22;4480;52.370;9.748;2022-09-24T17:04:11;13.90;99.90
8888;DHT22;4480;52.370;9.748;2022-09-24T17:06:37;13.90;99.90
8888;DHT22;4480;52.370;9.748;2022-09-24T17:09:05;13.90;99.90
8888;DHT22;4480;52.370;9.748;2022-09-24T17:11:54;13.90;99.90
8888;DHT22;4480;52.370;9.748;2022-09-24T17:14:21;13.80;99.90
8888;DHT22;4480;52.370;9.748;2022-09-24T17:16:48;13.90;99.90
8888;DHT22;4480;52.370;9.748;2022-09-24T17:19:15;13.80;99.90
8888;DHT22;4480;52.370;9.748;2022-09-24T17:21:43;13.80;99.90
8888;DHT22;4480;52.370;9.748;2022-09-24T17:24:14;13.80;99.90
8888;DHT22;4480;52.370;9.748;2022-09-24T17:26:41;13.80;99.90
8888;DHT22;4480;52.370;9.748;2022-09-24T17:29:10;13.80;99.90
8888;DHT22;4480;52.370;9.748;2022-09-24T17:31:38;13.80;99.90
8888;DHT22;4480;52.370;9.748;2022-09-24T17:34:07;13.80;99.90
8888;DHT22;4480;52.370;9.748;2022-09-24T17:36:37;13.70;99.90
8888;DHT22;4480;52.370;9.748;2022-09-24T17:39:04;13.70;99.90
8888;DHT22;4480;52.370;9.748;2022-09-24T17:41:32;13.70;99.90
8888;DHT22;4480;52.370;9.748;2022-09-24T17:43:59;13.70;99.90
8888;DHT22;4480;52.370;9.748;2022-09-24T17:46:29;13.70;99.90
8888;DHT22;4480;52.370;9.748;2022-09-24T17:48:57;13.70;99.90
8888;DHT22;4480;52.370;9.748;2022-09-24T17:51:26;13.70;99.90
8888;DHT22;4480;52.370;9.748;2022-09-24T17:53:57;13.70;99.90
8888;DHT22;4480;52.370;9.748;2022-09-24T17:56:26;13.60;99.90
8888;DHT22;4480;52.370;9.748;2022-09-24T17:58:54;13.60;99.90
8888;DHT22;4480;52.370;9.748;2022-09-24T18:01:22;13.60;99.90
8888;DHT22;4480;52.370;9.748;2022-09-24T18:03:53;13.60;99.90
8888;DHT22;4480;52.370;9.748;2022-09-24T18:06:20;13.60;99.90
8888;DHT22;4480;52.370;9.748;2022-09-24T18:08:49;13.60;99.90
8888;DHT22;4480;52.370;9.748;2022-09-24T18:11:17;13.60;99.90
8888;DHT22;4480;52.370;9.748;2022-09-24T18:13:49;13.60;99.90
8888;DHT22;4480;52.370;9.748;2022-09-24T18:16:16;13.60;99.90
8888;DHT22;4480;52.370;9.748;2022-09-24T18:18:44;13.60;99.90
8888;DHT22;4480;52.370;9.748;2022-09-24T18:21:16;13.60;99.90
8888;DHT22;4480;52.370;9.748;2022-09-24T18:23:43;13.60;99.90
8888;DHT22;4480;52.370;9.748;2022-09-24T18:26:12;13.50;99.90
8888;DHT22;4480;52.370;9.748;2022-09-24T18:28:41;13.50;99.90
8888;DHT22;4480;52.370;9.748;2022-09-24T18:31:13;13.50;99.90
8888;DHT22;4480;52.370;9.748;2022-09-24T18:33:41;13.50;99.90
8888;DHT22;4480;52.370;9.748;2022-09-24T18:36:10;13.50;99.90
8888;DHT22;4480;52.370;9.748;2022-09-24T18:38:39;13.50;99.90
8888;DHT22;4480;52.370;9.748;2022-09-24T18:44:16;13.50;99.90
8888;DHT22;4480;52.370;9.748;2022-09-24T18:46:44;13.50;99.90
8888;DHT22;4480;52.370;9.748;2022-09-24T18:49:11;13.50;99.90
8888;DHT22;4480;52.370;9.748;2022-09-24T18:51:38;13.50;99.90
8888;DHT22;4480;52.370;9.748;2022-09-24T18:54:07;13.50;99.90
8888;DHT22;4480;52.370;9.748;2022-09-24T18:56:36;13.50;99.90
8888;DHT22;4480;52.370;9.748;2022-09-24T18:59:05;13.40;99.90
8888;DHT22;4480;52.370;9.748;2022-09-24T19:01:32;13.40;99.90
8888;DHT22;4480;52.370;9.748;2022-09-24T19:03:59;13.40;99.90
8888;DHT22;4480;52.370;9.748;2022-09-24T19:06:26;13.50;99.90
8888;DHT22;4480;52.370;9.748;2022-09-24T19:08:53;13.40;99.90
8888;DHT22;4480;52.370;9.748;2022-09-24T19:11:22;13.50;99.90
8888;DHT22;4480;52.370;9.748;2022-09-24T19:13:50;13.50;99.90
8888;DHT22;4480;52.370;9.748;2022-09-24T19:16:19;13.50;99.90
8888;DHT22;4480;52.370;9.748;2022-09-24T19:18:48;13.50;99.90
8888;DHT22;4480;52.370;9.748;2022-09-24T19:21:15;13.50;99.90
8888;DHT22;4480;52.370;9.748;2022-09-24T19:23:43;13.50;99.90
8888;DHT22;4480;52.370;9.748;2022-09-24T19:26:14;13.50;99.90
8888;DHT22;4480;52.370;9.748;2022-09-24T19:28:42;13.50;99.90
8888;DHT22;4480;52.370;9.748;2022-09-24T19:31:13;13.50;99.90
8888;DHT22;4480;52.370;9.748;2022-09-24T19:33:40;13.50;99.90
8888;DHT22;4480;52.370;9.748;2022-09-24T19:36:09;13.50;99.90
8888;DHT22;4480;52.370;9.748;2022-09-24T19:38:36;13.40;99.90
8888;DHT22;4480;52.370;9.748;2022-09-24T19:41:05;13.40;99.90
8888;DHT22;4480;52.370;9.748;2022-09-24T19:43:35;13.50;99.90
8888;DHT22;4480;52.370;9.748;2022-09-24T19:46:04;13.50;99.90
8888;DHT22;4480;52.370;9.748;2022-09-24T19:48:35;13.50;99.90
8888;DHT22;4480;52.370;9.748;2022-09-24T19:51:04;13.50;99.90
8888;DHT22;4480;52.370;9.748;2022-09-24T19:53:31;13.40;99.90
8888;DHT22;4480;52.370;9.748;2022-09-24T19:55:59;13.40;99.90
8888;DHT22;4480;52.370;9.748;2022-09-24T19:58:26;13.40;99.90
8888;DHT22;4480;52.370;9.748;2022-09-24T20:00:53;13.40;99.90
8888;DHT22;4480;52.370;9.748;2022-09-24T20:03:21;13.40;99.90
8888;DHT22;4480;52.370;9.748;2022-09-24T20:05:50;13.30;99.90
8888;DHT22;4480;52.370;9.748;2022-09-24T20:08:17;13.30;99.90
8888;DHT22;4480;52.370;9.748;2022-09-24T20:10:44;13.30;99.90
8888;DHT22;4480;52.370;9.748;2022-09-24T20:13:11;13.30;99.90
8888;DHT22;4480;52.370;9.748;2022-09-24T20:15:38;13.30;99.90
8888;DHT22;4480;52.370;9.748;2022-09-24T20:18:06;13.30;99.90
8888;DHT22;4480;52.370;9.748;2022-09-24T20:20:35;13.30;99.90
8888;DHT22;4480;52.370;9.748;2022-09-24T20:23:01;13.30;99.90
8888;DHT22;4480;52.370;9.748;2022-09-24T20:25:28;13.30;99.90
8888;DHT22;4480;52.370;9.748;2022-09-24T20:28:13;13.30;99.90
8888;DHT22;4480;52.370;9.748;2022-09-24T20:30:41;13.30;99.90
8888;DHT22;4480;52.370;9.748;2022-09-24T20:33:09;13.30;99.90
8888;DHT22;4480;52.370;9.748;2022-09-24T20:35:37;13.30;99.90
8888;DHT22;4480;52.370;9.748;2022-09-24T20:38:06;13.30;99.90
8888;DHT22;4480;52.370;9.748;2022-09-24T20:40:34;13.30;99.90
8888;DHT22;4480;52.370;9.748;2022-09-24T20:43:01;13.30;99.90
8888;DHT22;4480;52.370;9.748;2022-09-24T20:45:28;13.30;99.90
8888;DHT22;4480;52.370;9.748;2022-09-24T20:47:55;13.30;99.90
8888;DHT22;4480;52.370;9.748;2022-09-24T20:50:22;13.40;99.90
8888;DHT22;4480;52.370;9.748;2022-09-24T20:52:50;13.30;99.90
8888;DHT22;4480;52.370;9.748;2022-09-24T20:55:17;13.30;99.90
8888;DHT22;4480;52.370;9.748;2022-09-24T20:57:44;13.40;99.90
8888;DHT22;4480;52.370;9.748;2022-09-24T21:00:12;13.40;99.90
8888;DHT22;4480;52.370;9.748;2022-09-24T21:02:39;13.40;99.90
8888;DHT22;4480;52.370;9.748;2022-09-24T21:05:07;13.40;99.90
8888;DHT22;4480;52.370;9.748;2022-09-24T21:07:35;13.40;99.90
8888;DHT22;4480;52.370;9.748;2022-09-24T21:10:08;13.30;99.90
8888;DHT22;4480;52.370;9.748;2022-09-24T21:12:35;13.30;99.90
8888;DHT22;4480;52.370;9.748;2022-09-24T21:15:03;13.30;99.90
8888;DHT22;4480;52.370;9.748;2022-09-24T21:17:30;13.20;99.90
8888;DHT22;4480;52.370;9.748;2022-09-24T21:19:57;13.20;99.90
8888;DHT22;4480;52.370;9.748;2022-09-24T21:22:23;13.20;99.90
8888;DHT22;4480;52.370;9.748;2022-09-24T21:24:50;13.20;99.90
8888;DHT22;4480;52.370;9.748;2022-09-24T21:27:19;13.20;99.90
8888;DHT22;4480;52.370;9.748;2022-09-24T21:29:45;13.20;99.90
8888;DHT22;4480;52.370;9.748;2022-09-24T21:32:13;13.20;99.90
8888;DHT22;4480;52.370;9.748;2022-09-24T21:34:41;13.20;99.90
8888;DHT22;4480;52.370;9.748;2022-09-24T21:37:10;13.20;99.90
8888;DHT22;4480;52.370;9.748;2022-09-24T21:39:38;13.20;99.90
8888;DHT22;4480;52.370;9.748;2022-09-24T21:42:05;13.20;99.90
8888;DHT22;4480;52.370;9.748;2022-09-24T21:44:34;13.20;99.90
8888;DHT22;4480;52.370;9.748;2022-09-24T21:47:01;13.10;99.90
8888;DHT22;4480;52.370;9.748;2022-09-24T21:49:27;13.10;99.90
8888;DHT22;4480;52.370;9.748;2022-09-24T21:51:54;13.10;99.90
8888;DHT22;4480;52.370;9.748;2022-09-24T21:54:22;13.10;99.90
8888;DHT22;4480;52.370;9.748;2022-09-24T21:56:49;13.00;99.90
8888;DHT22;4480;52.370;9.748;2022-09-24T21:59:18;13.00;99.90
8888;DHT22;4480;52.370;9.748;2022-09-24T22:02:04;13.00;99.90
8888;DHT22;4480;52.370;9.748;2022-09-24T22:04:30;12.90;99.90
8888;DHT22;4480;52.370;9.748;2022-09-24T22:06:58;13.00;99.90
8888;DHT22;4480;52.370;9.748;2022-09-24T22:09:24;13.00;99.90
8888;DHT22;4480;52.370;9.748;2022-09-24T22:11:51;13.00;99.90
8888;DHT22;4480;52.370;9.748;2022-09-24T22:14:20;13.00;99.90
8888;DHT22;4480;52.370;9.748;2022-09-24T22:16:47;13.00;99.90
8888;DHT22;4480;52.370;9.748;2022-09-24T22:19:15;13.00;99.90
8888;DHT22;4480;52.370;9.748;2022-09-24T22:21:42;13.00;99.90
8888;DHT22;4480;52.370;9.748;2022-09-24T22:24:09;13.10;99.90
8888;DHT22;4480;52.370;9.748;2022-09-24T22:26:36;13.10;99.90
8888;DHT22;4480;52.370;9.748;2022-09-24T22:29:02;13.10;99.90
8888;DHT22;4480;52.370;9.748;2022-09-24T22:31:30;13.10;99.90
8888;DHT22;4480;52.370;9.748;2022-09-24T22:33:56;13.10;99.90
8888;DHT22;4480;52.370;9.748;2022-09-24T22:36:42;13.10;99.90
8888;DHT22;4480;52.370;9.748;2022-09-24T22:39:09;13.10;99.90
8888;DHT22;4480;52.370;9.748;2022-09-24T22:41:37;13.10;99.90
8888;DHT22;4480;52.370;9.748;2022-09-24T22:44:08;13.10;99.90
8888;DHT22;4480;52.370;9.748;2022-09-24T22:46:35;13.10;99.90
8888;DHT22;4480;52.370;9.748;2022-09-24T22:49:04;13.10;99.90
8888;DHT22;4480;52.370;9.748;2022-09-24T22:51:31;13.10;99.90
8888;DHT22;4480;52.370;9.748;2022-09-24T22:54:00;13.10;99.90
8888;DHT22;4480;52.370;9.748;2022-09-24T22:56:27;13.10;99.90
8888;DHT22;4480;52.370;9.748;2022-09-24T22:58:56;13.10;99.90
8888;DHT22;4480;52.370;9.748;2022-09-24T23:01:24;13.10;99.90
8888;DHT22;4480;52.370;9.748;2022-09-24T23:03:52;13.10;99.90